If you wish to contribute or participate in the discussions about articles you are invited to join SKYbrary as a registered user

 Actions

Cape Lisburne LRRS Airport

From SKYbrary Wiki

PALU
Airport
ICAO: PALU – IATA: LUR
Summary
Name Cape Lisburne LRRS Airport
Region North America
Territory Alaska US.gif
Location Cape Lisburne, Alaska
Serving Cape Lisburne
Elevation 4.877 m
16 ft
16 ft4.877 m
Type medium airport
Coordinates 68° 52' 30.48" N, 166° 6' 36.08" W
Runways
Designator Length Width Surface ROPS
8/26 1463 m4,799.869 ft
41 m134.514 ft
GVL /


METAR
Observation PALU 190155Z AUTO 10006KT 10SM OVC080 05/01 A2951 RMK AO2 SLP992 T00480005
Station Cape Lisburne, Cape Lisburne LRRS Airport
Date/Time 19 September 2019 01:55:00
Wind direction 100°
Wind speed 06 kts
Lowest cloud amount overcast
Temperature 4.8°C
Dew point 0.5°C
Humidity 73%
QNH hPa
Weather condition n/a

Maps

Terrain

Loading map...

Airport Layout

Loading map...


Accidents & Serious Incidents at or in vicinity of PALU

None on SKYbrary